Time;durP1;ratioP1;P1;durP2;ratioP2;P2;SDS_P1;SDS_P2;PMS_P1;PMS_P2;Temp;Humidity;BMP_temperature;BMP_pressure;BME280_temperature;BME280_humidity;BME280_pressure;Samples;Min_cycle;Max_cycle;Signal;HPM_P1;HPM_P2
2021/03/07 00:02:11;;;;;;;44.45;21.25;;;;;;;2.66;66.19;102542.44;4840555;29;20056;-51
2021/03/07 00:04:38;;;;;;;41.35;20.40;;;;;;;2.65;65.98;102551.72;4836193;29;20057;-49
2021/03/07 00:07:05;;;;;;;36.08;23.48;;;;;;;2.70;66.30;102540.84;4877592;29;20052;-48
2021/03/07 00:09:32;;;;;;;41.70;22.05;;;;;;;2.70;66.01;102548.25;4870256;29;20049;-50
2021/03/07 00:11:59;;;;;;;54.55;25.77;;;;;;;2.69;65.71;102544.69;4852707;29;20045;-48
2021/03/07 00:14:25;;;;;;;65.13;26.73;;;;;;;2.66;65.98;102549.81;4858923;29;20045;-49
2021/03/07 00:16:51;;;;;;;58.63;26.42;;;;;;;2.66;66.04;102541.59;4860732;29;20061;-47
2021/03/07 00:19:18;;;;;;;50.65;25.33;;;;;;;2.63;66.17;102550.31;4860081;29;20057;-52
2021/03/07 00:21:44;;;;;;;47.35;24.52;;;;;;;2.62;66.28;102538.53;4840953;29;20134;-51
2021/03/07 00:24:10;;;;;;;44.80;22.88;;;;;;;2.61;66.17;102536.91;4858126;29;20133;-50
2021/03/07 00:26:36;;;;;;;42.63;22.08;;;;;;;2.57;66.16;102540.38;4860778;29;20457;-50
2021/03/07 00:29:03;;;;;;;40.80;20.10;;;;;;;2.56;66.04;102534.06;4860494;29;20053;-49
2021/03/07 00:31:29;;;;;;;31.67;19.20;;;;;;;2.57;66.40;102537.66;4859908;29;20512;-51
2021/03/07 00:33:56;;;;;;;34.92;17.95;;;;;;;2.65;65.88;102531.78;4859711;29;20141;-47
2021/03/07 00:36:31;;;;;;;40.00;20.35;;;;;;;2.58;66.14;102531.91;4860824;29;20101;-54
2021/03/07 00:39:08;;;;;;;37.55;18.08;;;;;;;2.52;66.09;102526.59;4830070;29;20795;-51
2021/03/07 00:41:42;;;;;;;30.77;16.23;;;;;;;2.53;66.16;102525.53;4844362;29;20045;-51
2021/03/07 00:44:09;;;;;;;28.13;16.60;;;;;;;2.56;66.01;102527.78;4874387;29;20663;-51
2021/03/07 00:46:41;;;;;;;29.27;16.95;;;;;;;2.53;66.24;102523.63;4860606;29;20046;-50
2021/03/07 00:49:08;;;;;;;30.13;16.40;;;;;;;2.54;66.00;102525.31;4860445;29;20080;-48
2021/03/07 00:51:35;;;;;;;31.85;16.60;;;;;;;2.55;66.11;102521.47;4859208;29;20041;-58
2021/03/07 00:54:02;;;;;;;28.42;15.38;;;;;;;2.55;65.86;102521.47;4860015;29;20105;-49
2021/03/07 00:56:29;;;;;;;24.30;13.45;;;;;;;2.51;66.16;102511.28;4860090;29;20078;-49
2021/03/07 00:58:55;;;;;;;28.02;14.27;;;;;;;2.45;66.21;102513.13;4858577;29;20084;-52
2021/03/07 01:01:22;;;;;;;26.15;14.90;;;;;;;2.46;66.53;102518.31;4860304;29;20437;-51
2021/03/07 01:03:48;;;;;;;27.35;16.08;;;;;;;2.46;66.26;102517.50;4859712;29;20053;-51
2021/03/07 01:06:15;;;;;;;25.50;13.32;;;;;;;2.44;66.30;102515.00;4860719;29;20145;-53
2021/03/07 01:08:41;;;;;;;24.83;12.88;;;;;;;2.35;66.57;102505.59;4859354;29;20472;-48
2021/03/07 01:11:07;;;;;;;23.25;13.70;;;;;;;2.31;66.77;102504.41;4863074;29;20054;-48
2021/03/07 01:13:34;;;;;;;24.45;12.50;;;;;;;2.31;66.60;102509.88;4857747;29;20085;-50
2021/03/07 01:16:00;;;;;;;22.25;12.95;;;;;;;2.33;66.50;102504.19;4858721;29;20105;-48
2021/03/07 01:18:26;;;;;;;23.00;12.55;;;;;;;2.29;66.58;102503.84;4874438;29;20480;-47
2021/03/07 01:20:53;;;;;;;24.20;13.30;;;;;;;2.29;66.75;102500.25;4859946;29;20041;-50
2021/03/07 01:23:21;;;;;;;22.08;12.57;;;;;;;2.31;66.59;102498.09;4858464;29;20113;-49
2021/03/07 01:25:48;;;;;;;21.20;11.27;;;;;;;2.30;66.59;102496.47;4859207;29;20049;-50
2021/03/07 01:28:16;;;;;;;25.40;12.35;;;;;;;2.24;66.83;102497.44;4858304;29;20041;-48
2021/03/07 01:30:43;;;;;;;17.98;11.82;;;;;;;2.21;66.99;102500.66;4859793;29;20089;-53
2021/03/07 01:33:10;;;;;;;16.75;10.95;;;;;;;2.21;66.73;102487.00;4859875;29;20053;-48
2021/03/07 01:35:38;;;;;;;17.90;10.32;;;;;;;2.24;66.75;102490.09;4859320;29;20411;-49
2021/03/07 01:38:04;;;;;;;17.50;10.52;;;;;;;2.20;66.93;102493.53;4859662;29;20045;-49
2021/03/07 01:40:35;;;;;;;18.58;9.98;;;;;;;2.16;66.88;102485.03;4842760;29;20136;-51
2021/03/07 01:43:03;;;;;;;19.00;9.95;;;;;;;2.14;66.94;102484.44;4842417;29;20065;-49
2021/03/07 01:45:30;;;;;;;25.08;10.63;;;;;;;2.12;67.13;102483.03;4858840;29;20073;-49
2021/03/07 01:48:00;;;;;;;18.63;9.52;;;;;;;2.09;67.10;102478.06;4859374;29;20050;-52
2021/03/07 01:50:30;;;;;;;21.50;9.50;;;;;;;2.05;67.36;102474.16;4857506;29;20054;-50
2021/03/07 01:52:58;;;;;;;19.10;9.32;;;;;;;2.02;67.24;102470.00;4858825;29;20148;-47
2021/03/07 01:55:27;;;;;;;19.92;11.38;;;;;;;2.11;67.28;102464.97;4859785;29;20049;-52
2021/03/07 01:58:03;;;;;;;22.80;9.68;;;;;;;2.13;67.27;102460.94;4858226;29;20393;-51
2021/03/07 02:00:30;;;;;;;20.67;10.15;;;;;;;2.19;67.26;102467.31;4873076;29;20085;-50
2021/03/07 02:02:57;;;;;;;20.95;11.32;;;;;;;2.16;67.04;102456.88;4858807;29;20128;-50
2021/03/07 02:05:25;;;;;;;19.42;10.63;;;;;;;2.17;66.78;102461.28;4865416;29;20059;-50
2021/03/07 02:07:52;;;;;;;17.50;9.68;;;;;;;2.11;67.03;102464.97;4864651;29;20144;-50
2021/03/07 02:10:28;;;;;;;20.40;10.95;;;;;;;2.07;67.37;102472.81;4866645;29;20100;-52
2021/03/07 02:12:59;;;;;;;21.95;10.40;;;;;;;2.07;67.00;102466.53;4850027;29;20069;-49
2021/03/07 02:15:27;;;;;;;19.50;9.90;;;;;;;2.03;67.41;102468.13;4857591;29;20081;-52
2021/03/07 02:17:55;;;;;;;18.90;9.88;;;;;;;2.01;67.22;102457.44;4841997;29;20415;-47
2021/03/07 02:20:24;;;;;;;13.93;9.05;;;;;;;1.98;67.91;102463.41;4858969;29;20046;-50
2021/03/07 02:23:03;;;;;;;19.67;10.13;;;;;;;1.93;67.57;102462.47;4858495;29;20084;-49
2021/03/07 02:25:30;;;;;;;17.35;9.25;;;;;;;1.97;67.37;102459.00;4858416;29;20073;-51
2021/03/07 02:27:58;;;;;;;18.85;11.68;;;;;;;1.99;67.51;102456.84;4842321;29;20073;-50
2021/03/07 02:30:26;;;;;;;13.30;8.75;;;;;;;2.02;67.27;102459.09;4859012;29;20049;-50
2021/03/07 02:33:09;;;;;;;18.33;8.98;;;;;;;1.99;67.42;102450.53;4872144;29;20053;-47
2021/03/07 02:35:38;;;;;;;15.73;9.57;;;;;;;1.98;67.55;102448.91;4859018;29;20104;-56
2021/03/07 02:38:06;;;;;;;23.70;9.68;;;;;;;1.94;67.40;102454.03;4858908;29;20069;-49
2021/03/07 02:40:34;;;;;;;23.50;10.85;;;;;;;1.98;67.22;102448.91;4851224;29;20140;-51
2021/03/07 02:43:11;;;;;;;24.88;11.93;;;;;;;1.99;67.38;102439.63;4858512;29;20118;-50
2021/03/07 02:45:39;;;;;;;25.15;13.18;;;;;;;2.00;66.92;102446.75;4858694;29;20150;-52
2021/03/07 02:48:09;;;;;;;26.55;11.52;;;;;;;1.94;67.49;102436.81;4858217;29;20495;-50
2021/03/07 02:50:37;;;;;;;25.92;13.70;;;;;;;1.94;67.42;102429.44;4857966;29;20045;-50
2021/03/07 02:53:07;;;;;;;23.98;12.90;;;;;;;1.99;67.25;102434.16;4857991;29;20104;-48
2021/03/07 02:55:36;;;;;;;23.85;12.32;;;;;;;1.94;67.29;102425.88;4861295;29;20050;-48
2021/03/07 02:58:08;;;;;;;21.75;11.60;;;;;;;1.87;67.72;102430.69;4861180;29;20094;-53
2021/03/07 03:00:36;;;;;;;24.63;10.52;;;;;;;1.81;67.63;102427.88;4859882;29;20096;-51
2021/03/07 03:03:10;;;;;;;25.75;10.35;;;;;;;1.80;67.96;102426.19;4843769;29;20109;-51
2021/03/07 03:05:37;;;;;;;16.63;10.07;;;;;;;1.80;67.92;102420.72;4869788;29;20044;-47
2021/03/07 03:08:05;;;;;;;19.77;11.00;;;;;;;1.78;67.65;102422.88;4870215;29;20045;-54
2021/03/07 03:10:35;;;;;;;22.40;10.40;;;;;;;1.73;67.94;102414.59;4864060;29;20054;-50
2021/03/07 03:13:02;;;;;;;18.42;10.10;;;;;;;1.71;68.21;102422.22;4860635;29;20403;-51
2021/03/07 03:15:30;;;;;;;14.70;9.20;;;;;;;1.68;68.39;102411.78;4860042;29;20053;-51
2021/03/07 03:17:57;;;;;;;15.18;9.18;;;;;;;1.68;68.26;102416.41;4860003;29;20041;-49
2021/03/07 03:20:26;;;;;;;17.45;9.07;;;;;;;1.70;68.52;102415.09;4861733;29;20133;-53
2021/03/07 03:22:57;;;;;;;18.38;9.60;;;;;;;1.74;67.74;102419.00;4845082;29;20072;-47
2021/03/07 03:25:23;;;;;;;21.90;9.32;;;;;;;1.71;67.88;102416.75;4860909;29;20050;-55
2021/03/07 03:27:53;;;;;;;23.05;8.98;;;;;;;1.72;68.08;102423.06;4875676;29;20564;-52
2021/03/07 03:30:21;;;;;;;18.50;9.82;;;;;;;1.68;68.15;102416.41;4861683;29;20049;-49
2021/03/07 03:32:48;;;;;;;16.90;9.50;;;;;;;1.65;68.20;102404.09;4861051;29;20113;-51
2021/03/07 03:35:16;;;;;;;21.05;12.40;;;;;;;1.63;68.24;102402.69;4861032;29;20056;-52
2021/03/07 03:37:44;;;;;;;18.10;11.18;;;;;;;1.62;68.23;102403.75;4862263;29;20069;-47
2021/03/07 03:40:19;;;;;;;26.38;12.45;;;;;;;1.64;68.15;102396.16;4861648;29;20041;-52
2021/03/07 03:42:50;;;;;;;17.23;10.38;;;;;;;1.65;68.26;102404.09;4860625;29;20110;-48
2021/03/07 03:45:17;;;;;;;21.95;10.38;;;;;;;1.62;68.24;102392.81;4861398;29;20109;-47
2021/03/07 03:47:48;;;;;;;22.95;12.45;;;;;;;1.61;68.02;102394.75;4860990;29;20488;-51
2021/03/07 03:50:17;;;;;;;21.08;11.45;;;;;;;1.57;68.36;102387.28;4844058;29;20049;-53
2021/03/07 03:52:48;;;;;;;25.85;13.65;;;;;;;1.56;68.40;102391.91;4861093;29;20060;-50
2021/03/07 03:55:20;;;;;;;22.65;13.57;;;;;;;1.50;68.48;102386.59;4844504;29;20085;-51
2021/03/07 03:57:51;;;;;;;21.48;12.07;;;;;;;1.42;68.89;102378.81;4874705;29;20133;-51
2021/03/07 04:00:21;;;;;;;23.63;15.00;;;;;;;1.44;68.82;102384.84;4860702;29;20061;-49
2021/03/07 04:02:48;;;;;;;22.65;11.73;;;;;;;1.47;68.69;102382.47;4860833;29;20041;-49
2021/03/07 04:05:20;;;;;;;22.88;10.80;;;;;;;1.40;68.65;102387.25;4866396;29;20065;-49
2021/03/07 04:07:47;;;;;;;18.33;10.20;;;;;;;1.40;68.95;102387.25;4873410;29;20089;-48
2021/03/07 04:10:17;;;;;;;20.42;10.77;;;;;;;1.40;68.78;102380.97;4860608;29;20620;-50
2021/03/07 04:12:49;;;;;;;19.90;9.35;;;;;;;1.38;68.71;102383.91;4843739;29;20449;-53
2021/03/07 04:15:19;;;;;;;17.00;9.45;;;;;;;1.39;68.69;102380.13;4861142;29;20113;-52
2021/03/07 04:17:49;;;;;;;17.70;8.52;;;;;;;1.41;68.71;102382.59;4866060;29;20834;-48
2021/03/07 04:20:17;;;;;;;15.20;9.52;;;;;;;1.39;68.71;102376.56;4860452;29;20045;-50
2021/03/07 04:22:44;;;;;;;18.23;9.65;;;;;;;1.35;68.87;102370.75;4860373;29;20046;-50
2021/03/07 04:25:12;;;;;;;25.73;9.43;;;;;;;1.37;68.84;102373.28;4861073;29;20038;-52
2021/03/07 04:27:39;;;;;;;20.13;10.05;;;;;;;1.35;68.76;102370.75;4859826;29;20134;-48
2021/03/07 04:30:06;;;;;;;18.33;8.95;;;;;;;1.32;68.91;102368.56;4859935;29;20080;-49
2021/03/07 04:32:33;;;;;;;16.38;8.18;;;;;;;1.33;68.86;102375.66;4860752;29;20109;-49
2021/03/07 04:35:02;;;;;;;15.38;7.13;;;;;;;1.32;69.03;102370.44;4860640;29;20061;-52
2021/03/07 04:37:29;;;;;;;20.17;7.63;;;;;;;1.30;69.12;102365.22;4861066;29;20157;-53
2021/03/07 04:39:55;;;;;;;17.70;8.25;;;;;;;1.31;69.12;102361.44;4843095;29;20515;-47
2021/03/07 04:42:22;;;;;;;10.85;6.75;;;;;;;1.36;69.02;102358.78;4859683;29;20081;-47
2021/03/07 04:44:49;;;;;;;14.65;7.80;;;;;;;1.37;69.02;102351.44;4860483;29;20053;-49
2021/03/07 04:47:15;;;;;;;15.50;8.30;;;;;;;1.36;69.02;102357.97;4860152;29;20080;-52
2021/03/07 04:49:42;;;;;;;14.63;7.07;;;;;;;1.35;69.30;102362.59;4874260;29;20072;-51
2021/03/07 04:52:08;;;;;;;14.70;7.30;;;;;;;1.38;69.12;102361.28;4860048;29;20050;-53
2021/03/07 04:54:34;;;;;;;17.00;7.38;;;;;;;1.35;69.18;102373.50;4860104;29;20073;-49
2021/03/07 04:57:02;;;;;;;12.57;7.10;;;;;;;1.33;69.30;102377.53;4859714;29;20049;-53
2021/03/07 04:59:30;;;;;;;15.77;7.63;;;;;;;1.22;69.18;102376.50;4859308;29;20058;-48
2021/03/07 05:01:56;;;;;;;15.43;6.80;;;;;;;1.16;69.70;102366.59;4858952;29;20092;-50
2021/03/07 05:04:23;;;;;;;16.33;7.32;;;;;;;1.16;69.71;102358.41;4874082;29;20101;-48
2021/03/07 05:06:49;;;;;;;14.18;7.30;;;;;;;1.18;69.72;102356.25;4872028;29;20096;-53
2021/03/07 05:09:16;;;;;;;15.32;7.68;;;;;;;1.25;69.68;102346.03;4858588;29;20050;-53
2021/03/07 05:11:42;;;;;;;16.48;8.05;;;;;;;1.28;69.55;102355.63;4861911;29;20045;-51
2021/03/07 05:14:09;;;;;;;11.07;7.35;;;;;;;1.23;69.52;102359.09;4859162;29;20041;-49
2021/03/07 05:16:35;;;;;;;16.42;7.60;;;;;;;1.20;69.59;102354.13;4859998;29;20046;-48
2021/03/07 05:19:03;;;;;;;13.43;6.97;;;;;;;1.22;69.74;102354.69;4842623;29;20045;-50
2021/03/07 05:21:30;;;;;;;15.65;7.38;;;;;;;1.26;69.69;102349.59;4860080;29;20128;-49
2021/03/07 05:23:59;;;;;;;11.13;6.28;;;;;;;1.27;69.60;102349.34;4858366;29;20046;-52
2021/03/07 05:26:27;;;;;;;13.35;6.63;;;;;;;1.29;69.63;102346.38;4859539;29;20054;-51
2021/03/07 05:28:55;;;;;;;10.52;6.13;;;;;;;1.29;69.56;102352.66;4857813;29;20046;-49
2021/03/07 05:31:22;;;;;;;11.98;6.53;;;;;;;1.32;69.62;102349.44;4859258;29;20534;-48
2021/03/07 05:33:48;;;;;;;17.63;7.72;;;;;;;1.29;69.82;102351.84;4858171;29;20054;-50
2021/03/07 05:36:15;;;;;;;13.75;6.85;;;;;;;1.23;69.76;102350.91;4859086;29;20049;-48
2021/03/07 05:38:42;;;;;;;10.90;7.22;;;;;;;1.21;69.98;102359.34;4843203;29;20500;-52
2021/03/07 05:41:11;;;;;;;12.82;7.40;;;;;;;1.20;70.01;102360.41;4857244;29;20049;-49
2021/03/07 05:43:39;;;;;;;13.20;6.57;;;;;;;1.17;70.18;102354.59;4873208;29;20057;-49
2021/03/07 05:46:10;;;;;;;12.30;6.32;;;;;;;1.16;70.42;102347.50;4859279;29;20105;-51
2021/03/07 05:48:36;;;;;;;14.27;7.07;;;;;;;1.20;70.08;102354.13;4858934;29;20549;-52
2021/03/07 05:51:03;;;;;;;13.18;6.90;;;;;;;1.21;69.96;102350.31;4858639;29;20050;-48
2021/03/07 05:53:31;;;;;;;11.38;6.88;;;;;;;1.24;69.95;102344.38;4858637;29;20129;-49
2021/03/07 05:55:58;;;;;;;13.65;7.00;;;;;;;1.22;69.98;102335.59;4842036;29;20060;-48
2021/03/07 05:58:27;;;;;;;11.23;6.65;;;;;;;1.15;70.19;102340.38;4873418;29;20050;-47
2021/03/07 06:00:54;;;;;;;12.13;6.82;;;;;;;1.16;70.26;102344.78;4841787;29;20152;-49
2021/03/07 06:03:22;;;;;;;17.80;6.95;;;;;;;1.18;70.18;102334.44;4858930;29;20038;-48
2021/03/07 06:05:52;;;;;;;12.57;7.18;;;;;;;1.18;70.17;102334.44;4849477;29;20053;-48
2021/03/07 06:08:19;;;;;;;16.65;7.15;;;;;;;1.18;70.13;102329.81;4859377;29;20106;-49
2021/03/07 06:10:46;;;;;;;12.23;6.22;;;;;;;1.18;70.40;102351.66;4866807;29;20057;-52
2021/03/07 06:13:13;;;;;;;14.48;7.03;;;;;;;1.16;70.46;102347.50;4859154;29;20460;-51
2021/03/07 06:15:50;;;;;;;15.45;6.40;;;;;;;1.14;70.37;102352.34;4859100;29;20057;-47
2021/03/07 06:18:22;;;;;;;13.07;7.28;;;;;;;1.08;70.47;102362.38;4858988;29;20050;-48
2021/03/07 06:20:53;;;;;;;13.75;6.78;;;;;;;1.06;70.73;102352.78;4858745;29;20045;-51
2021/03/07 06:23:34;;;;;;;11.35;5.93;;;;;;;1.06;70.65;102350.84;4841597;29;20392;-46
2021/03/07 06:26:10;;;;;;;12.98;6.10;;;;;;;1.09;70.71;102344.91;4858605;29;20068;-48
2021/03/07 06:28:37;;;;;;;12.07;5.72;;;;;;;1.12;70.64;102344.44;4872426;29;20054;-47
2021/03/07 06:31:28;;;;;;;18.17;7.18;;;;;;;1.10;70.57;102337.56;4858183;29;20448;-49
2021/03/07 06:33:58;;;;;;;12.48;7.50;;;;;;;1.10;70.60;102345.75;4857723;29;20050;-49
2021/03/07 06:36:26;;;;;;;12.40;6.57;;;;;;;1.07;70.63;102344.34;4858258;29;20113;-50
2021/03/07 06:38:59;;;;;;;11.48;6.57;;;;;;;1.03;70.83;102336.88;4859039;29;20088;-47
2021/03/07 06:41:27;;;;;;;9.63;6.10;;;;;;;1.03;71.04;102336.88;4858508;29;20449;-49
2021/03/07 06:44:15;;;;;;;15.00;7.40;;;;;;;1.04;71.08;102327.63;4858813;29;20069;-53
2021/03/07 06:46:44;;;;;;;13.10;6.25;;;;;;;1.05;71.06;102319.22;4864247;29;20072;-50
2021/03/07 06:49:27;;;;;;;13.75;6.53;;;;;;;1.06;70.92;102309.13;4858576;29;20082;-50
2021/03/07 06:52:01;;;;;;;10.18;5.95;;;;;;;1.05;70.79;102302.84;4857697;29;20058;-46
2021/03/07 06:54:29;;;;;;;12.18;5.50;;;;;;;1.05;70.76;102304.75;4857786;29;20132;-46
2021/03/07 06:56:55;;;;;;;20.02;6.75;;;;;;;1.03;71.15;102320.53;4857499;29;20045;-49
2021/03/07 06:59:23;;;;;;;16.02;6.85;;;;;;;1.04;71.21;102313.97;4857884;29;20061;-51
2021/03/07 07:01:54;;;;;;;11.55;6.32;;;;;;;1.06;71.35;102306.41;4858270;29;20444;-50
2021/03/07 07:04:22;;;;;;;19.75;6.50;;;;;;;1.11;71.08;102311.97;4843011;29;20511;-47
2021/03/07 07:07:03;;;;;;;11.10;6.32;;;;;;;1.11;71.38;102306.50;4890040;29;20045;-51
2021/03/07 07:09:30;;;;;;;15.98;6.22;;;;;;;1.14;71.11;102316.91;4834282;29;20053;-50
2021/03/07 07:11:56;;;;;;;10.30;5.70;;;;;;;1.14;70.93;102323.19;4878285;29;20064;-48
2021/03/07 07:14:50;;;;;;;11.43;6.22;;;;;;;1.14;71.36;102320.47;4858583;29;20049;-49
2021/03/07 07:17:20;;;;;;;17.05;6.20;;;;;;;1.17;71.15;102321.88;4857760;29;20148;-47
2021/03/07 07:19:47;;;;;;;16.15;7.50;;;;;;;1.17;71.12;102332.78;4858038;29;20128;-51
2021/03/07 07:22:16;;;;;;;13.75;6.20;;;;;;;1.19;71.28;102336.13;4857835;29;20567;-50
2021/03/07 07:24:44;;;;;;;10.13;5.85;;;;;;;1.22;71.30;102338.31;4858297;29;20074;-47
2021/03/07 07:27:11;;;;;;;12.60;5.57;;;;;;;1.24;71.39;102339.75;4857537;29;20045;-48
2021/03/07 07:29:38;;;;;;;8.60;5.95;;;;;;;1.29;71.28;102330.84;4858367;29;20080;-48
2021/03/07 07:32:11;;;;;;;17.42;6.25;;;;;;;1.32;71.17;102341.28;4858378;29;20400;-48
2021/03/07 07:34:37;;;;;;;9.90;5.82;;;;;;;1.36;71.44;102342.41;4858685;29;20092;-52
2021/03/07 07:37:19;;;;;;;13.02;6.10;;;;;;;1.39;71.45;102331.03;4856731;29;20038;-50
2021/03/07 07:39:52;;;;;;;12.10;6.03;;;;;;;1.42;71.26;102325.06;4858112;29;20481;-49
2021/03/07 07:42:24;;;;;;;11.23;5.70;;;;;;;1.45;71.21;102323.75;4860127;29;20132;-50
2021/03/07 07:44:52;;;;;;;15.82;5.97;;;;;;;1.48;71.16;102324.09;4861811;29;20491;-46
2021/03/07 07:47:20;;;;;;;12.60;5.72;;;;;;;1.51;71.22;102323.56;4861081;29;20501;-52
2021/03/07 07:49:49;;;;;;;15.63;5.90;;;;;;;1.53;71.42;102324.19;4860775;29;20598;-47
2021/03/07 07:52:25;;;;;;;14.25;6.65;;;;;;;1.56;71.48;102337.31;4860985;29;20124;-49
2021/03/07 07:55:00;;;;;;;13.82;6.65;;;;;;;1.59;71.28;102336.81;4861908;29;20050;-52
2021/03/07 07:57:32;;;;;;;16.52;5.82;;;;;;;1.62;71.45;102330.88;4860570;29;20065;-47
2021/03/07 08:00:00;;;;;;;12.23;6.00;;;;;;;1.64;71.55;102328.72;4859656;29;20093;-47
2021/03/07 08:02:45;;;;;;;10.88;5.82;;;;;;;1.67;71.86;102328.22;4861093;29;20056;-48
2021/03/07 08:05:35;;;;;;;10.07;6.05;;;;;;;1.70;71.99;102322.28;4864887;29;20064;-49
2021/03/07 08:08:06;;;;;;;12.18;5.35;;;;;;;1.75;71.52;102329.72;4857666;29;20060;-48
2021/03/07 08:10:45;;;;;;;17.80;7.22;;;;;;;1.78;71.71;102326.50;4869396;29;20100;-50
2021/03/07 08:13:27;;;;;;;15.73;5.43;;;;;;;1.83;71.96;102326.56;4861116;29;20496;-49
2021/03/07 08:15:55;;;;;;;14.37;6.43;;;;;;;1.90;71.46;102329.97;4857303;29;20109;-51
2021/03/07 08:18:23;;;;;;;11.52;5.55;;;;;;;1.95;71.44;102323.75;4860217;29;20516;-54
2021/03/07 08:20:49;;;;;;;11.13;6.55;;;;;;;2.00;71.47;102321.09;4860119;29;20102;-53
2021/03/07 08:23:23;;;;;;;8.63;5.90;;;;;;;2.05;72.00;102318.44;4860615;29;20516;-51
2021/03/07 08:25:49;;;;;;;8.98;5.13;;;;;;;2.08;71.57;102324.25;4860332;29;20037;-51
2021/03/07 08:28:28;;;;;;;7.68;5.50;;;;;;;2.13;71.63;102326.22;4859498;29;20571;-50
2021/03/07 08:30:57;;;;;;;13.45;5.78;;;;;;;2.21;71.39;102323.06;4874282;29;20121;-49
2021/03/07 08:33:31;;;;;;;11.73;6.32;;;;;;;2.25;71.60;102329.69;4860406;29;20128;-53
2021/03/07 08:36:20;;;;;;;12.05;5.68;;;;;;;2.29;71.59;102330.84;4860865;29;20046;-49
2021/03/07 08:38:52;;;;;;;13.10;5.80;;;;;;;2.34;71.67;102336.38;4836532;29;20102;-52
2021/03/07 08:41:20;;;;;;;11.55;6.35;;;;;;;2.40;71.54;102341.66;4834359;29;20093;-53
2021/03/07 08:43:58;;;;;;;9.85;5.28;;;;;;;2.46;71.43;102337.09;4849451;29;20451;-48
2021/03/07 08:46:39;;;;;;;9.48;5.43;;;;;;;2.50;71.30;102334.69;4857112;29;20085;-49
2021/03/07 08:49:18;;;;;;;12.77;5.95;;;;;;;2.55;71.19;102341.03;4854905;29;20077;-50
2021/03/07 08:51:47;;;;;;;8.25;4.85;;;;;;;2.60;71.27;102343.00;4870496;29;20563;-49
2021/03/07 08:54:22;;;;;;;9.18;5.15;;;;;;;2.65;71.46;102346.63;4857444;29;20049;-49
2021/03/07 08:56:50;;;;;;;10.30;5.53;;;;;;;2.72;71.38;102336.34;4870954;29;20452;-48
2021/03/07 08:59:17;;;;;;;8.13;4.63;;;;;;;2.76;70.97;102345.69;4857632;29;20085;-48
2021/03/07 09:01:48;;;;;;;25.33;6.43;;;;;;;2.82;70.89;102346.59;4856074;29;20577;-53
2021/03/07 09:04:15;;;;;;;15.45;5.72;;;;;;;2.86;70.88;102343.06;4854696;29;20046;-49
2021/03/07 09:06:46;;;;;;;10.13;5.63;;;;;;;2.90;71.07;102333.28;4872337;29;20466;-51
2021/03/07 09:09:16;;;;;;;9.07;5.35;;;;;;;2.96;71.08;102332.28;4840339;29;20097;-50
2021/03/07 09:11:48;;;;;;;10.65;4.80;;;;;;;3.02;70.66;102325.75;4865983;29;20477;-49
2021/03/07 09:14:16;;;;;;;14.40;5.90;;;;;;;3.08;70.77;102337.59;4857717;29;20056;-53
2021/03/07 09:16:45;;;;;;;12.15;7.20;;;;;;;3.13;70.61;102326.69;4857504;29;20109;-49
2021/03/07 09:19:23;;;;;;;13.68;6.50;;;;;;;3.21;70.94;102319.94;4856901;29;20076;-50
2021/03/07 09:22:15;;;;;;;13.15;5.80;;;;;;;3.27;70.60;102325.22;4857274;29;20049;-53
2021/03/07 09:25:00;;;;;;;12.30;5.63;;;;;;;3.33;70.41;102309.69;4855853;29;20148;-51
2021/03/07 09:27:32;;;;;;;11.57;6.05;;;;;;;3.38;70.63;102307.00;4853997;29;20097;-53
2021/03/07 09:30:07;;;;;;;16.08;5.55;;;;;;;3.45;70.40;102321.28;4856347;29;20144;-54
2021/03/07 09:32:55;;;;;;;9.07;5.63;;;;;;;3.52;70.67;102324.66;4855207;29;20099;-54
2021/03/07 09:35:31;;;;;;;11.27;6.10;;;;;;;3.58;70.23;102318.94;4861988;29;20057;-50
2021/03/07 09:38:05;;;;;;;10.43;4.68;;;;;;;3.66;70.01;102314.91;4844222;29;20564;-51
2021/03/07 09:40:37;;;;;;;9.43;4.93;;;;;;;3.71;70.19;102312.19;4855311;29;20132;-51
2021/03/07 09:43:23;;;;;;;15.77;6.38;;;;;;;3.77;70.16;102307.59;4855947;29;20462;-53
2021/03/07 09:45:51;;;;;;;13.35;6.75;;;;;;;3.84;69.97;102306.28;4855327;29;20862;-53
2021/03/07 09:48:30;;;;;;;7.55;5.00;;;;;;;3.91;70.11;102306.91;4856876;29;20397;-51
2021/03/07 09:50:57;;;;;;;11.52;5.35;;;;;;;4.00;69.76;102304.47;4856538;29;20114;-51
2021/03/07 09:53:24;;;;;;;9.77;5.22;;;;;;;4.08;69.73;102304.81;4857085;29;20114;-48
2021/03/07 09:55:50;;;;;;;10.70;5.60;;;;;;;4.12;69.47;102297.72;4856786;29;20053;-52
2021/03/07 09:58:17;;;;;;;7.85;4.97;;;;;;;4.19;69.57;102298.31;4855162;29;20472;-52
2021/03/07 10:00:49;;;;;;;11.07;4.72;;;;;;;4.25;69.51;102280.81;4854853;29;20109;-51
2021/03/07 10:03:24;;;;;;;13.15;4.55;;;;;;;4.29;69.08;102276.44;4847885;29;20440;-50
2021/03/07 10:06:19;;;;;;;11.75;4.95;;;;;;;4.35;69.11;102279.19;4838763;29;20049;-47
2021/03/07 10:09:02;;;;;;;11.15;4.90;;;;;;;4.40;69.14;102288.28;4856670;29;20156;-52
2021/03/07 10:11:28;;;;;;;7.80;3.97;;;;;;;4.46;69.11;102281.75;4856103;29;20129;-52
2021/03/07 10:13:59;;;;;;;9.57;4.85;;;;;;;4.52;68.53;102279.84;4856653;29;20117;-52
2021/03/07 10:16:29;;;;;;;12.00;4.45;;;;;;;4.57;68.75;102282.63;4856364;29;20808;-49
2021/03/07 10:19:06;;;;;;;5.78;3.92;;;;;;;4.63;67.71;102284.28;4856042;29;20105;-52
2021/03/07 10:21:33;;;;;;;13.93;4.78;;;;;;;4.69;68.72;102292.25;4855519;29;20553;-53
2021/03/07 10:24:11;;;;;;;8.90;5.53;;;;;;;4.75;68.44;102302.16;4855356;29;20683;-48
2021/03/07 10:26:39;;;;;;;13.57;4.35;;;;;;;4.84;68.78;102307.97;4870865;29;20045;-52
2021/03/07 10:29:20;;;;;;;5.78;4.30;;;;;;;4.89;68.13;102316.22;4856843;29;20068;-50
2021/03/07 10:32:05;;;;;;;7.55;4.25;;;;;;;4.93;68.20;102306.34;4855138;29;20053;-54
2021/03/07 10:34:34;;;;;;;10.43;4.07;;;;;;;4.98;68.58;102305.56;4855376;29;20064;-51
2021/03/07 10:37:01;;;;;;;8.20;3.90;;;;;;;5.04;68.25;102308.03;4855304;29;20385;-49
2021/03/07 10:39:27;;;;;;;9.82;3.63;;;;;;;5.11;68.35;102305.84;4856689;29;20144;-49
2021/03/07 10:42:12;;;;;;;7.50;3.70;;;;;;;5.16;67.41;102311.38;4855119;29;20049;-50
2021/03/07 10:44:41;;;;;;;14.15;5.05;;;;;;;5.23;67.60;102302.84;4855720;29;20037;-56
2021/03/07 10:47:19;;;;;;;11.90;4.15;;;;;;;5.25;67.80;102306.97;4856269;29;20058;-48
2021/03/07 10:49:50;;;;;;;6.95;3.50;;;;;;;5.29;67.21;102302.59;4856082;29;20050;-48
2021/03/07 10:52:17;;;;;;;13.65;4.35;;;;;;;5.34;67.75;102310.03;4855337;29;20056;-49
2021/03/07 10:54:46;;;;;;;10.20;4.88;;;;;;;5.40;66.98;102308.94;4854218;29;20112;-48
2021/03/07 10:57:15;;;;;;;7.70;4.13;;;;;;;5.45;67.23;102301.50;4857483;29;20496;-52
2021/03/07 10:59:41;;;;;;;8.30;3.38;;;;;;;5.50;67.42;102309.78;4864826;29;20533;-51
2021/03/07 11:02:10;;;;;;;7.25;3.78;;;;;;;5.59;67.28;102306.50;4855527;29;20496;-48
2021/03/07 11:04:37;;;;;;;5.93;3.67;;;;;;;5.66;67.86;102307.03;4871618;29;20050;-49
2021/03/07 11:07:03;;;;;;;8.82;3.78;;;;;;;5.78;68.08;102302.06;4862770;29;20082;-49
2021/03/07 11:09:29;;;;;;;7.07;3.40;;;;;;;5.99;68.67;102301.00;4857378;29;20049;-50
2021/03/07 11:11:57;;;;;;;9.05;3.83;;;;;;;6.36;68.22;102295.13;4861863;29;20081;-49
2021/03/07 11:14:23;;;;;;;7.80;3.78;;;;;;;6.83;67.14;102294.72;4856926;29;20077;-50
2021/03/07 11:16:49;;;;;;;13.38;3.72;;;;;;;7.25;66.54;102298.59;4861375;29;20113;-47
2021/03/07 11:19:19;;;;;;;7.88;3.55;;;;;;;7.70;65.95;102304.91;4858364;29;20171;-49
2021/03/07 11:21:45;;;;;;;5.88;3.47;;;;;;;7.95;64.66;102308.25;4858736;29;20099;-50
2021/03/07 11:24:11;;;;;;;11.00;5.15;;;;;;;8.16;63.91;102297.00;4860358;29;20719;-51
2021/03/07 11:26:38;;;;;;;9.82;3.78;;;;;;;8.31;63.44;102294.16;4858713;29;20106;-49
2021/03/07 11:29:04;;;;;;;3.90;3.10;;;;;;;8.27;62.58;102306.88;4857325;29;20050;-51
2021/03/07 11:31:31;;;;;;;10.30;3.70;;;;;;;8.22;62.78;102296.69;4844232;29;20783;-53
2021/03/07 11:33:59;;;;;;;4.13;3.40;;;;;;;8.18;62.68;102308.59;4860361;29;20064;-49
2021/03/07 11:36:26;;;;;;;13.10;3.28;;;;;;;8.05;62.47;102306.53;4860559;29;20511;-50
2021/03/07 11:38:52;;;;;;;10.27;3.92;;;;;;;7.94;61.93;102301.09;4860514;29;20100;-47